Time;durP1;ratioP1;P1;durP2;ratioP2;P2;SDS_P1;SDS_P2;PMS_P1;PMS_P2;Temp;Humidity;BMP_temperature;BMP_pressure;BME280_temperature;BME280_humidity;BME280_pressure;Samples;Min_cycle;Max_cycle;Signal;HPM_P1;HPM_P2
2022/10/25 00:00:40;;;;;;;47.53;22.07;;;;;;;11.38;88.30;95260.59;5073502;28;20165;-79
2022/10/25 00:03:07;;;;;;;43.67;22.80;;;;;;;11.47;88.01;95284.91;5072905;28;20154;-79
2022/10/25 00:05:34;;;;;;;47.03;22.43;;;;;;;11.55;88.20;95305.78;5073031;28;20223;-80
2022/10/25 00:07:59;;;;;;;39.90;23.83;;;;;;;11.52;88.28;95314.09;5072289;28;20645;-79
2022/10/25 00:10:25;;;;;;;50.80;23.87;;;;;;;11.43;88.71;95300.31;5072848;28;20170;-79
2022/10/25 00:12:51;;;;;;;42.80;24.20;;;;;;;11.40;88.50;95302.56;5073100;28;20460;-79
2022/10/25 00:15:16;;;;;;;42.00;21.20;;;;;;;11.35;88.86;95293.44;5072848;28;21007;-79
2022/10/25 00:17:43;;;;;;;40.53;20.77;;;;;;;11.44;89.13;95311.69;5073059;28;20187;-79
2022/10/25 00:20:10;;;;;;;40.57;21.80;;;;;;;11.34;89.23;95301.53;5072531;28;20319;-79
2022/10/25 00:22:35;;;;;;;41.93;22.40;;;;;;;11.30;89.43;95295.06;5072525;28;20162;-79
2022/10/25 00:25:01;;;;;;;43.17;21.73;;;;;;;11.27;89.72;95296.28;5072559;28;20175;-79
2022/10/25 00:27:27;;;;;;;41.10;21.27;;;;;;;11.38;89.82;95310.69;5072470;28;20245;-79
2022/10/25 00:29:52;;;;;;;40.47;22.23;;;;;;;11.33;89.25;95316.53;5073031;28;20189;-79
2022/10/25 00:32:18;;;;;;;37.23;21.30;;;;;;;11.06;89.98;95275.44;5073028;28;20548;-79
2022/10/25 00:34:44;;;;;;;43.23;22.23;;;;;;;11.27;89.77;95301.56;5073262;28;20181;-79
2022/10/25 00:37:09;;;;;;;42.57;21.37;;;;;;;11.20;90.52;95306.03;5072992;28;20198;-79
2022/10/25 00:39:34;;;;;;;45.97;17.87;;;;;;;11.23;90.93;95308.25;5072555;28;20560;-78
2022/10/25 00:42:00;;;;;;;41.30;19.10;;;;;;;11.13;90.87;95272.78;5072603;28;20150;-79
2022/10/25 00:44:34;;;;;;;44.87;18.70;;;;;;;11.32;89.64;95300.97;5071751;28;20630;-79
2022/10/25 00:47:03;;;;;;;37.93;14.40;;;;;;;11.25;89.64;95295.66;5072666;28;20551;-79
2022/10/25 00:49:30;;;;;;;34.73;17.50;;;;;;;11.11;90.20;95283.53;5072296;28;20166;-79
2022/10/25 00:52:00;;;;;;;39.07;16.17;;;;;;;11.24;90.28;95294.03;5072353;28;20171;-79
2022/10/25 00:54:32;;;;;;;37.63;16.73;;;;;;;11.05;90.07;95268.53;5072678;28;20163;-79
2022/10/25 00:57:03;;;;;;;33.40;15.20;;;;;;;11.23;89.69;95292.44;5072589;28;20312;-80
2022/10/25 00:59:29;;;;;;;30.77;14.30;;;;;;;11.18;89.38;95283.50;5072044;28;20214;-80
2022/10/25 01:01:55;;;;;;;29.27;13.83;;;;;;;10.98;89.12;95253.75;5072468;28;20216;-80
2022/10/25 01:04:25;;;;;;;22.27;11.97;;;;;;;11.13;89.93;95283.31;5072250;28;20220;-79
2022/10/25 01:06:51;;;;;;;25.03;13.53;;;;;;;10.95;89.94;95254.97;5072292;28;20197;-80
2022/10/25 01:09:27;;;;;;;29.37;13.13;;;;;;;11.12;89.60;95281.69;5072360;28;20211;-79
2022/10/25 01:11:52;;;;;;;31.00;11.73;;;;;;;11.09;89.60;95277.66;5071737;28;20288;-80
2022/10/25 01:14:18;;;;;;;22.37;12.13;;;;;;;11.06;89.66;95278.06;5070781;28;20630;-79
2022/10/25 01:16:46;;;;;;;33.97;12.90;;;;;;;11.07;89.91;95289.41;5072047;28;20174;-79
2022/10/25 01:19:36;;;;;;;22.43;11.83;;;;;;;10.92;90.49;95271.16;5072052;28;20266;-79
2022/10/25 01:22:19;;;;;;;26.47;12.93;;;;;;;11.00;90.06;95283.31;5075816;28;20216;-80
2022/10/25 01:25:26;;;;;;;26.60;11.13;;;;;;;11.02;90.36;95282.09;5075846;28;20258;-79
2022/10/25 01:28:25;;;;;;;31.57;12.77;;;;;;;11.02;90.25;95287.38;5062047;28;20186;-80
2022/10/25 01:31:14;;;;;;;23.00;11.53;;;;;;;10.97;90.59;95287.19;5076394;28;20205;-80
2022/10/25 01:33:52;;;;;;;32.53;12.03;;;;;;;10.84;90.50;95263.47;5076118;28;20170;-80
2022/10/25 01:36:39;;;;;;;30.20;12.30;;;;;;;10.92;90.55;95281.69;5075886;28;20201;-80
2022/10/25 01:39:19;;;;;;;29.27;10.77;;;;;;;10.87;90.37;95278.88;5075975;28;20185;-80
2022/10/25 01:42:08;;;;;;;21.10;9.90;;;;;;;10.77;91.02;95274.00;5075971;28;20176;-80
2022/10/25 01:44:53;;;;;;;24.23;11.47;;;;;;;10.77;90.89;95270.56;5075845;28;20155;-80
2022/10/25 01:47:28;;;;;;;22.77;9.83;;;;;;;10.70;91.00;95277.63;5075722;28;20149;-80
2022/10/25 01:50:07;;;;;;;23.70;10.43;;;;;;;10.63;91.07;95267.09;5074784;28;20158;-80
2022/10/25 01:52:32;;;;;;;24.90;10.93;;;;;;;10.63;91.10;95264.47;5075891;28;20151;-80
2022/10/25 01:54:58;;;;;;;27.57;10.33;;;;;;;10.58;91.03;95251.09;5075790;28;20212;-80
2022/10/25 01:57:35;;;;;;;23.20;10.27;;;;;;;10.64;91.16;95260.03;5075449;28;20206;-81
2022/10/25 02:00:31;;;;;;;25.47;12.43;;;;;;;10.34;90.61;95214.81;5077208;28;20652;-81
2022/10/25 02:03:11;;;;;;;25.63;11.23;;;;;;;10.58;90.94;95262.44;5084151;28;20247;-80
2022/10/25 02:05:39;;;;;;;28.10;12.77;;;;;;;10.63;90.58;95271.56;5103043;28;20256;-80
2022/10/25 02:08:14;;;;;;;31.23;13.30;;;;;;;10.51;91.17;95253.72;5086428;28;20181;-80
2022/10/25 02:10:47;;;;;;;34.53;15.27;;;;;;;10.50;90.75;95252.09;5085841;28;20177;-80
2022/10/25 02:13:48;;;;;;;44.63;17.93;;;;;;;10.46;91.04;95240.34;5082751;28;20178;-80
2022/10/25 02:16:24;;;;;;;38.60;16.33;;;;;;;10.61;91.21;95263.03;5084297;28;20182;-80
2022/10/25 02:18:56;;;;;;;38.40;16.43;;;;;;;10.58;91.06;95248.44;5086296;28;20185;-80
2022/10/25 02:21:23;;;;;;;31.70;15.23;;;;;;;10.53;91.07;95250.88;5077485;28;20182;-81
2022/10/25 02:23:49;;;;;;;30.83;15.10;;;;;;;10.32;91.09;95214.19;5086409;28;20161;-80
2022/10/25 02:26:17;;;;;;;33.27;14.87;;;;;;;10.58;91.18;95261.63;5095108;28;20252;-80
2022/10/25 02:28:44;;;;;;;28.83;13.53;;;;;;;10.58;91.16;95257.16;5090828;28;20185;-80
2022/10/25 02:31:18;;;;;;;31.17;14.13;;;;;;;10.44;91.36;95260.78;5094658;28;21065;-80
2022/10/25 02:33:45;;;;;;;30.27;13.67;;;;;;;10.35;91.20;95237.50;5094963;28;20178;-81
2022/10/25 02:36:12;;;;;;;34.13;13.00;;;;;;;10.43;91.50;95250.47;5075548;28;20175;-81
2022/10/25 02:38:39;;;;;;;25.97;13.07;;;;;;;10.30;92.44;95255.69;5074866;28;20543;-80
2022/10/25 02:41:04;;;;;;;30.90;13.83;;;;;;;10.19;92.28;95238.69;5074954;28;20178;-80
2022/10/25 02:43:30;;;;;;;30.80;12.53;;;;;;;10.31;91.97;95268.63;5075012;28;20163;-81
2022/10/25 02:45:56;;;;;;;27.20;12.30;;;;;;;10.13;91.94;95245.50;5074940;28;20163;-81
2022/10/25 02:48:21;;;;;;;24.57;11.80;;;;;;;10.21;91.93;95247.16;5074985;28;20215;-80
2022/10/25 02:50:47;;;;;;;25.47;12.03;;;;;;;10.24;91.86;95244.13;5074614;28;20371;-81
2022/10/25 02:53:13;;;;;;;29.83;11.80;;;;;;;10.31;92.26;95252.03;5074690;28;20166;-80
2022/10/25 02:55:38;;;;;;;23.73;11.03;;;;;;;10.26;92.04;95242.13;5074888;28;20645;-81
2022/10/25 02:58:03;;;;;;;34.53;12.73;;;;;;;9.98;91.47;95194.88;5074377;28;20222;-81
2022/10/25 03:00:29;;;;;;;24.20;11.57;;;;;;;10.05;92.12;95211.47;5074240;28;20601;-80
2022/10/25 03:02:54;;;;;;;30.80;13.57;;;;;;;10.25;92.28;95251.03;5074119;28;20159;-81
2022/10/25 03:05:20;;;;;;;29.00;11.47;;;;;;;10.25;91.91;95255.47;5074186;28;20163;-81
2022/10/25 03:07:45;;;;;;;28.07;12.50;;;;;;;9.85;91.41;95208.00;5080276;28;20169;-81
2022/10/25 03:10:10;;;;;;;28.67;12.57;;;;;;;9.66;92.63;95206.09;5094163;28;20551;-81
2022/10/25 03:12:36;;;;;;;26.00;11.53;;;;;;;9.93;92.95;95247.25;5094495;28;20166;-81
2022/10/25 03:15:01;;;;;;;23.17;11.17;;;;;;;9.93;92.58;95236.75;5092785;28;20319;-81
2022/10/25 03:17:27;;;;;;;26.00;11.73;;;;;;;9.98;92.46;95246.66;5094250;28;20181;-81
2022/10/25 03:19:52;;;;;;;19.30;11.30;;;;;;;9.96;92.02;95241.59;5093874;28;20534;-81
2022/10/25 03:22:17;;;;;;;29.77;12.60;;;;;;;9.82;91.94;95232.03;5081531;28;20174;-81
2022/10/25 03:24:43;;;;;;;23.93;12.43;;;;;;;9.87;91.92;95234.88;5073671;28;20564;-80
2022/10/25 03:27:08;;;;;;;25.23;11.60;;;;;;;10.00;91.84;95252.53;5073711;28;20596;-81
2022/10/25 03:29:33;;;;;;;23.20;11.53;;;;;;;9.87;91.43;95228.81;5093667;28;20189;-81
2022/10/25 03:31:59;;;;;;;36.47;12.70;;;;;;;9.99;91.80;95250.91;5094055;28;20625;-81
2022/10/25 03:34:24;;;;;;;26.47;13.73;;;;;;;9.99;91.46;95253.53;5089859;28;20173;-81
2022/10/25 03:36:51;;;;;;;26.27;12.20;;;;;;;9.91;92.14;95248.47;5088110;28;20208;-81
2022/10/25 03:39:16;;;;;;;23.83;11.97;;;;;;;9.86;92.42;95248.25;5080644;28;20257;-81
2022/10/25 03:41:42;;;;;;;25.67;12.27;;;;;;;9.78;92.44;95239.50;5081006;28;20190;-81
2022/10/25 03:44:07;;;;;;;27.47;12.93;;;;;;;9.90;92.52;95252.91;5083798;28;20170;-81
2022/10/25 03:46:33;;;;;;;31.60;12.63;;;;;;;9.91;92.57;95251.91;5073639;28;20163;-81
2022/10/25 03:48:58;;;;;;;24.63;11.50;;;;;;;9.80;92.40;95236.69;5079286;28;20175;-81
2022/10/25 03:51:23;;;;;;;25.00;11.87;;;;;;;9.73;92.70;95226.16;5081755;28;20177;-81
2022/10/25 03:53:49;;;;;;;25.93;11.50;;;;;;;9.84;92.48;95246.63;5074535;28;20196;-81
2022/10/25 03:56:15;;;;;;;25.23;13.10;;;;;;;9.82;92.14;95239.94;5074073;28;20173;-81
2022/10/25 03:58:40;;;;;;;28.87;12.33;;;;;;;9.50;92.56;95198.56;5072488;28;20229;-81
2022/10/25 04:01:08;;;;;;;32.53;14.23;;;;;;;9.55;94.31;95235.56;5072895;28;20166;-81
2022/10/25 04:03:34;;;;;;;29.60;12.97;;;;;;;9.42;94.31;95210.03;5072720;28;20245;-81
2022/10/25 04:06:00;;;;;;;33.87;12.67;;;;;;;9.29;93.65;95181.88;5073160;28;20154;-82
2022/10/25 04:08:25;;;;;;;36.25;15.50;;;;;;;9.64;94.48;95229.94;5072432;28;20413;-81
2022/10/25 04:10:50;;;;;;;35.53;15.37;;;;;;;9.73;94.41;95244.56;5073289;28;20166;-81
2022/10/25 04:13:16;;;;;;;38.60;14.97;;;;;;;9.53;95.03;95217.34;5073228;28;20875;-81
2022/10/25 04:15:41;;;;;;;41.10;14.57;;;;;;;9.65;94.34;95238.66;5072746;28;20189;-81
2022/10/25 04:18:07;;;;;;;30.53;13.17;;;;;;;9.66;93.70;95241.09;5074411;28;20596;-81
2022/10/25 04:20:32;;;;;;;31.40;14.10;;;;;;;9.49;93.28;95210.06;5072674;28;20162;-81
2022/10/25 04:22:57;;;;;;;26.30;11.27;;;;;;;9.54;92.77;95207.66;5075756;28;20181;-82
2022/10/25 04:25:25;;;;;;;30.20;12.53;;;;;;;9.36;92.42;95182.72;5092907;28;20226;-82
2022/10/25 04:27:50;;;;;;;34.60;13.83;;;;;;;9.52;92.74;95214.91;5080441;28;20158;-82
2022/10/25 04:30:16;;;;;;;31.53;14.23;;;;;;;9.25;92.26;95178.03;5079310;28;20181;-83
2022/10/25 04:32:41;;;;;;;40.10;13.80;;;;;;;9.67;92.42;95257.66;5091517;28;20197;-82
2022/10/25 04:35:07;;;;;;;38.03;13.87;;;;;;;9.31;92.10;95195.63;5092886;28;20625;-82
2022/10/25 04:37:33;;;;;;;35.73;14.37;;;;;;;9.11;92.08;95152.69;5091262;28;20680;-82
2022/10/25 04:39:58;;;;;;;33.13;16.17;;;;;;;9.22;92.50;95170.53;5092781;28;20244;-82
2022/10/25 04:42:24;;;;;;;47.33;20.43;;;;;;;9.51;92.64;95210.69;5092891;28;20162;-86
2022/10/25 04:44:49;;;;;;;52.17;20.57;;;;;;;9.63;92.58;95227.50;5092372;28;20174;-82
2022/10/25 04:47:14;;;;;;;43.17;22.50;;;;;;;9.39;93.83;95213.88;5092363;28;20580;-81
2022/10/25 04:49:40;;;;;;;48.53;20.87;;;;;;;9.61;94.43;95247.91;5092425;28;20166;-82
2022/10/25 04:52:05;;;;;;;58.80;23.07;;;;;;;9.62;93.87;95231.94;5092140;28;20150;-82
2022/10/25 04:54:31;;;;;;;64.53;28.60;;;;;;;9.65;94.09;95263.13;5091123;28;20407;-81
2022/10/25 04:56:56;;;;;;;51.50;24.47;;;;;;;9.44;94.21;95223.78;5092237;28;20310;-82
2022/10/25 04:59:21;;;;;;;62.37;27.90;;;;;;;9.50;93.37;95227.47;5092152;28;20209;-81
2022/10/25 05:01:47;;;;;;;66.40;26.60;;;;;;;9.53;94.12;95227.88;5092285;28;20665;-82
2022/10/25 05:04:12;;;;;;;57.50;25.77;;;;;;;9.58;93.78;95224.66;5092523;28;20192;-82
2022/10/25 05:06:37;;;;;;;55.77;26.00;;;;;;;9.68;93.80;95219.88;5092351;28;20191;-82
2022/10/25 05:09:03;;;;;;;53.20;25.07;;;;;;;9.85;92.87;95221.16;5092499;28;20203;-83
2022/10/25 05:11:29;;;;;;;60.83;28.03;;;;;;;10.20;91.33;95258.72;5091140;28;20162;-83
2022/10/25 05:13:54;;;;;;;58.67;27.43;;;;;;;9.91;91.31;95209.84;5092199;28;20554;-84
2022/10/25 05:16:23;;;;;;;64.20;27.90;;;;;;;10.26;91.11;95254.47;5092390;28;20181;-83
2022/10/25 05:18:54;;;;;;;64.17;27.87;;;;;;;10.15;90.27;95216.38;5090823;28;20581;-82
2022/10/25 05:21:22;;;;;;;66.50;31.03;;;;;;;10.15;90.13;95190.06;5092188;28;20572;-84
2022/10/25 05:23:47;;;;;;;62.27;28.90;;;;;;;10.43;89.21;95200.47;5092794;28;20271;-83
2022/10/25 05:26:18;;;;;;;61.30;30.07;;;;;;;10.75;88.85;95238.34;5093274;28;20155;-84
2022/10/25 05:28:45;;;;;;;78.57;32.47;;;;;;;10.68;87.96;95211.19;5091489;28;20161;-84
2022/10/25 05:31:19;;;;;;;79.43;32.97;;;;;;;11.19;87.76;95277.25;5090909;28;20161;-84
2022/10/25 05:33:47;;;;;;;66.60;32.23;;;;;;;11.21;87.57;95259.41;5092162;28;20158;-84
2022/10/25 05:36:13;;;;;;;85.00;34.40;;;;;;;11.19;86.20;95237.72;5090910;28;20154;-84
2022/10/25 05:38:39;;;;;;;59.00;27.10;;;;;;;11.62;85.59;95285.50;5092011;28;20189;-84
2022/10/25 05:41:05;;;;;;;62.50;27.07;;;;;;;11.88;85.97;95308.38;5091985;28;20625;-84
2022/10/25 05:43:31;;;;;;;56.63;27.27;;;;;;;12.11;85.25;95303.41;5090725;28;20158;-84
2022/10/25 05:46:11;;;;;;;68.17;28.20;;;;;;;12.08;83.98;95235.25;5091778;28;20256;-84
2022/10/25 05:48:37;;;;;;;51.17;22.37;;;;;;;13.23;82.60;95310.75;5089326;28;20170;-83
2022/10/25 05:51:25;;;;;;;51.67;23.77;;;;;;;13.60;79.88;95324.84;5071496;28;20212;-82
2022/10/25 05:53:53;;;;;;;49.93;23.70;;;;;;;13.86;78.74;95332.53;5071515;28;20209;-84
2022/10/25 05:56:21;;;;;;;56.27;24.93;;;;;;;13.89;77.14;95310.13;5071641;28;20177;-83
2022/10/25 05:58:46;;;;;;;62.77;23.83;;;;;;;14.36;77.77;95335.03;5071673;28;20214;-83
2022/10/25 06:01:15;;;;;;;61.40;28.93;;;;;;;14.92;76.53;95328.63;5071711;28;20569;-84
2022/10/25 06:03:41;;;;;;;58.80;27.13;;;;;;;14.73;73.72;95264.25;5071936;28;20167;-85
2022/10/25 06:06:08;;;;;;;52.88;22.83;;;;;;;15.59;73.10;95345.16;5095888;28;20173;-84
2022/10/25 06:08:34;;;;;;;97.25;36.30;;;;;;;15.99;71.44;95345.31;5093365;28;20184;-85
2022/10/25 06:11:08;;;;;;;87.38;35.15;;;;;;;16.26;70.57;95324.38;5095358;28;20166;-83
2022/10/25 06:13:34;;;;;;;74.97;30.08;;;;;;;16.74;69.57;95322.16;5094145;28;20161;-83
2022/10/25 06:16:04;;;;;;;51.40;19.40;;;;;;;17.80;67.30;95351.69;5094034;28;20636;-83
2022/10/25 06:18:31;;;;;;;51.28;25.20;;;;;;;18.30;63.76;95301.75;5095317;28;20185;-83
2022/10/25 06:21:00;;;;;;;48.53;20.45;;;;;;;18.98;62.12;95326.28;5095575;28;20544;-84
2022/10/25 06:23:26;;;;;;;43.25;19.40;;;;;;;19.45;60.01;95337.16;5095755;28;20531;-87
2022/10/25 06:25:51;;;;;;;35.47;15.05;;;;;;;20.07;58.31;95296.47;5096175;28;20252;-85
2022/10/25 06:28:17;;;;;;;31.00;15.07;;;;;;;21.37;55.99;95342.72;5095026;28;20222;-87
2022/10/25 06:30:42;;;;;;;41.40;14.35;;;;;;;22.50;53.27;95340.50;5099087;28;20227;-83
2022/10/25 06:33:07;;;;;;;40.33;13.60;;;;;;;23.26;49.62;95304.47;5107056;28;20166;-84
2022/10/25 06:35:33;;;;;;;34.67;12.50;;;;;;;24.52;47.06;95337.53;5099416;28;20174;-84
2022/10/25 06:38:02;;;;;;;31.55;14.10;;;;;;;25.35;46.15;95347.00;5084256;28;20248;-85
2022/10/25 06:40:27;;;;;;;35.05;13.52;;;;;;;25.83;44.76;95312.59;5075179;28;20151;-85
2022/10/25 06:42:55;;;;;;;36.78;13.95;;;;;;;26.65;42.80;95337.84;5074836;28;20193;-85
2022/10/25 06:45:21;;;;;;;32.70;12.75;;;;;;;27.17;41.72;95346.53;5075492;28;20189;-85
2022/10/25 06:47:47;;;;;;;25.77;13.93;;;;;;;27.81;40.72;95344.56;5076097;28;20171;-86
2022/10/25 06:50:12;;;;;;;31.95;14.25;;;;;;;28.14;39.08;95328.88;5083548;28;20281;-85
2022/10/25 06:52:38;;;;;;;41.33;13.27;;;;;;;28.16;38.91;95321.25;5094957;28;20254;-84
2022/10/25 06:55:03;;;;;;;35.83;15.13;;;;;;;28.18;38.01;95334.50;5094995;28;20625;-83
2022/10/25 06:57:29;;;;;;;35.75;15.32;;;;;;;28.14;38.71;95274.69;5094998;28;20197;-84
2022/10/25 06:59:54;;;;;;;28.52;14.18;;;;;;;27.35;38.64;95301.53;5093618;28;20253;-87
2022/10/25 07:02:19;;;;;;;28.85;13.10;;;;;;;25.60;42.10;95310.84;5094573;28;20185;-87
2022/10/25 07:04:45;;;;;;;31.88;15.57;;;;;;;23.38;46.19;95274.53;5095405;28;20161;-86
2022/10/25 07:07:13;;;;;;;30.38;14.77;;;;;;;21.62;50.80;95288.38;5095196;28;20173;-87
2022/10/25 07:09:39;;;;;;;33.47;14.05;;;;;;;20.41;54.25;95278.22;5106069;28;20231;-86
2022/10/25 07:12:05;;;;;;;32.97;12.75;;;;;;;20.07;55.96;95317.84;5105089;28;20169;-85
2022/10/25 07:14:30;;;;;;;38.50;13.43;;;;;;;19.33;57.67;95270.56;5099533;28;20173;-86
2022/10/25 07:16:56;;;;;;;36.65;14.65;;;;;;;19.39;59.04;95333.63;5092509;28;20187;-85
2022/10/25 07:19:23;;;;;;;34.35;13.25;;;;;;;18.99;59.99;95278.00;5092328;28;20177;-85
2022/10/25 07:21:49;;;;;;;33.60;13.35;;;;;;;18.55;60.01;95258.59;5091908;28;20185;-84
2022/10/25 07:24:15;;;;;;;44.95;14.23;;;;;;;18.44;60.66;95255.00;5092762;28;20181;-86
2022/10/25 07:26:40;;;;;;;55.13;25.80;;;;;;;18.46;62.18;95234.22;5092721;28;20158;-85
2022/10/25 07:29:06;;;;;;;32.20;15.75;;;;;;;18.99;60.93;95283.34;5092861;28;20672;-84
2022/10/25 07:31:34;;;;;;;48.25;19.08;;;;;;;19.22;59.86;95277.66;5093129;28;20226;-86
2022/10/25 07:34:02;;;;;;;29.60;14.25;;;;;;;19.34;58.72;95260.69;5091786;28;20190;-84
2022/10/25 07:36:28;;;;;;;43.13;15.95;;;;;;;19.29;58.83;95303.34;5094288;28;20606;-84
2022/10/25 07:38:55;;;;;;;33.80;15.45;;;;;;;19.15;59.06;95286.94;5092503;28;20339;-84
2022/10/25 07:41:21;;;;;;;42.30;15.50;;;;;;;19.53;59.42;95294.00;5092277;28;20322;-84
2022/10/25 07:43:47;;;;;;;37.88;15.73;;;;;;;19.61;57.34;95261.47;5094031;28;20199;-84
2022/10/25 07:46:12;;;;;;;49.03;15.60;;;;;;;20.03;57.47;95274.81;5092187;28;20174;-84
2022/10/25 07:48:38;;;;;;;38.55;15.25;;;;;;;20.15;55.91;95269.25;5090842;28;20681;-84
2022/10/25 07:51:05;;;;;;;50.92;16.98;;;;;;;20.14;54.67;95259.63;5091093;28;20173;-84
2022/10/25 07:53:30;;;;;;;43.35;16.60;;;;;;;20.45;56.35;95298.81;5095099;28;20248;-85
2022/10/25 07:55:56;;;;;;;38.75;17.17;;;;;;;20.19;56.54;95255.09;5091675;28;20245;-84
2022/10/25 07:58:21;;;;;;;35.92;14.80;;;;;;;20.65;55.06;95292.75;5092331;28;20213;-84
2022/10/25 08:00:47;;;;;;;38.30;16.05;;;;;;;20.66;55.21;95247.00;5090402;28;20236;-85
2022/10/25 08:03:14;;;;;;;40.03;15.18;;;;;;;21.31;54.94;95304.44;5084783;28;20170;-84
2022/10/25 08:05:41;;;;;;;31.27;15.73;;;;;;;21.56;54.45;95313.53;5073343;28;20543;-84
2022/10/25 08:08:07;;;;;;;37.10;13.50;;;;;;;21.35;54.31;95276.06;5071906;28;20556;-84
2022/10/25 08:10:32;;;;;;;34.80;15.32;;;;;;;21.25;53.97;95249.25;5070011;28;20198;-84
2022/10/25 08:12:58;;;;;;;32.42;13.13;;;;;;;21.37;54.20;95251.66;5071053;28;20173;-85
2022/10/25 08:15:23;;;;;;;40.40;12.88;;;;;;;21.57;51.79;95283.81;5070168;28;20273;-85
2022/10/25 08:17:56;;;;;;;38.00;11.77;;;;;;;21.52;53.02;95256.22;5070900;28;20186;-85
2022/10/25 08:20:22;;;;;;;32.40;11.93;;;;;;;21.63;51.24;95263.16;5071562;28;20179;-85
2022/10/25 08:22:47;;;;;;;35.35;11.82;;;;;;;21.47;53.10;95219.50;5070114;28;20563;-85
2022/10/25 08:25:12;;;;;;;31.58;10.30;;;;;;;21.88;50.99;95276.50;5071159;28;20249;-85
2022/10/25 08:27:40;;;;;;;27.33;10.70;;;;;;;21.82;50.90;95254.28;5078408;28;20680;-85
2022/10/25 08:30:06;;;;;;;28.58;10.20;;;;;;;21.77;49.84;95213.28;5092153;28;20217;-85
2022/10/25 08:32:33;;;;;;;35.17;9.68;;;;;;;22.15;49.82;95284.25;5086803;28;20175;-86
2022/10/25 08:34:58;;;;;;;23.15;10.02;;;;;;;21.72;50.82;95200.69;5071040;28;20602;-86
2022/10/25 08:37:24;;;;;;;31.23;12.93;;;;;;;22.14;49.96;95280.78;5069608;28;20220;-85
2022/10/25 08:39:49;;;;;;;40.50;10.82;;;;;;;22.07;51.53;95233.88;5069517;28;20637;-84
2022/10/25 08:42:26;;;;;;;36.30;10.00;;;;;;;22.59;49.57;95295.13;5070796;28;20232;-85
2022/10/25 08:45:00;;;;;;;26.05;9.70;;;;;;;22.64;48.42;95284.38;5069513;28;20640;-85
2022/10/25 08:47:34;;;;;;;21.08;10.07;;;;;;;22.67;49.61;95280.31;5079784;28;20173;-85
2022/10/25 08:50:09;;;;;;;35.67;12.13;;;;;;;22.76;49.22;95274.13;5100348;28;20179;-85
2022/10/25 08:52:48;;;;;;;31.00;9.52;;;;;;;22.64;51.17;95225.31;5073400;28;20616;-85
2022/10/25 08:55:18;;;;;;;26.63;9.10;;;;;;;22.59;48.83;95228.81;5078043;28;20272;-85
2022/10/25 08:57:47;;;;;;;25.85;8.13;;;;;;;22.61;50.26;95273.38;5068960;28;20285;-86
2022/10/25 09:00:21;;;;;;;26.23;9.70;;;;;;;22.63;48.95;95269.34;5069016;28;20226;-85
2022/10/25 09:02:51;;;;;;;24.90;8.80;;;;;;;22.90;49.79;95268.97;5074339;28;20184;-86
2022/10/25 09:05:37;;;;;;;34.65;9.98;;;;;;;23.16;48.68;95256.16;5090612;28;20184;-85
2022/10/25 09:08:22;;;;;;;22.90;8.02;;;;;;;23.32;49.04;95269.22;5080219;28;20181;-84
2022/10/25 09:11:15;;;;;;;28.92;9.40;;;;;;;23.30;48.11;95257.13;5080481;28;20228;-83
2022/10/25 09:13:43;;;;;;;30.75;8.65;;;;;;;23.24;47.76;95260.94;5086030;28;20169;-82
2022/10/25 09:16:15;;;;;;;28.52;10.02;;;;;;;23.24;47.58;95261.75;5091625;28;20174;-82
2022/10/25 09:18:44;;;;;;;25.92;8.25;;;;;;;23.32;48.71;95269.22;5089772;28;20213;-84
2022/10/25 09:21:33;;;;;;;33.35;9.23;;;;;;;23.43;47.46;95272.63;5080415;28;20174;-82
2022/10/25 09:24:04;;;;;;;20.67;8.63;;;;;;;23.50;48.10;95242.75;5090502;28;20262;-82
2022/10/25 09:26:51;;;;;;;28.75;9.18;;;;;;;23.54;46.55;95262.59;5091524;28;20645;-82
2022/10/25 09:29:27;;;;;;;25.25;9.05;;;;;;;23.44;47.17;95265.38;5091821;28;20169;-83
2022/10/25 09:32:02;;;;;;;29.27;8.32;;;;;;;23.23;46.84;95238.66;5090401;28;20578;-83
2022/10/25 09:34:33;;;;;;;28.85;7.78;;;;;;;22.93;47.30;95210.09;5092332;28;20520;-83
2022/10/25 09:37:23;;;;;;;22.63;8.98;;;;;;;23.23;48.00;95249.41;5091698;28;20256;-84
2022/10/25 09:39:53;;;;;;;31.00;8.73;;;;;;;23.26;48.71;95256.09;5091349;28;20260;-84
2022/10/25 09:42:26;;;;;;;20.10;6.70;;;;;;;23.24;46.76;95224.13;5095900;28;20584;-83
2022/10/25 09:45:00;;;;;;;19.77;7.25;;;;;;;23.18;47.15;95246.72;5094614;28;20172;-83
2022/10/25 09:48:00;;;;;;;20.35;7.80;;;;;;;22.82;48.35;95191.69;5094458;28;20173;-86
2022/10/25 09:50:30;;;;;;;25.00;7.93;;;;;;;22.53;47.83;95125.28;5087524;28;20193;-86
2022/10/25 09:53:13;;;;;;;18.77;6.70;;;;;;;23.01;48.01;95206.03;5096198;28;20667;-88
2022/10/25 09:55:51;;;;;;;30.75;8.68;;;;;;;23.00;47.65;95215.19;5073215;28;20288;-87
2022/10/25 09:58:25;;;;;;;23.13;6.85;;;;;;;22.67;49.05;95214.00;5074522;28;20206;-87
2022/10/25 10:00:54;;;;;;;21.05;7.65;;;;;;;22.53;48.07;95194.25;5109530;28;20271;-87
2022/10/25 10:03:21;;;;;;;21.50;6.72;;;;;;;22.62;49.64;95207.88;5094267;28;20193;-87
2022/10/25 10:05:56;;;;;;;31.23;7.97;;;;;;;22.34;49.37;95156.50;5093156;28;20180;-87
2022/10/25 10:08:23;;;;;;;33.20;7.93;;;;;;;22.36;48.83;95157.03;5093145;28;20176;-87
2022/10/25 10:10:49;;;;;;;18.77;6.38;;;;;;;22.17;48.95;95143.44;5094180;28;20178;-87
2022/10/25 10:13:50;;;;;;;26.00;8.52;;;;;;;22.48;49.07;95199.66;5092983;28;20173;-87
2022/10/25 10:16:37;;;;;;;26.00;6.35;;;;;;;22.48;49.46;95196.97;5064864;28;20280;-87
2022/10/25 10:19:13;;;;;;;23.73;6.75;;;;;;;22.51;50.18;95186.47;5093001;28;20194;-87
2022/10/25 10:21:43;;;;;;;23.08;7.45;;;;;;;22.51;48.62;95182.97;5092956;28;20180;-86
2022/10/25 10:24:42;;;;;;;21.42;6.50;;;;;;;22.49;48.77;95182.44;5092759;28;20169;-86
2022/10/25 10:27:24;;;;;;;22.77;7.53;;;;;;;22.42;50.47;95176.59;5059889;28;20208;-87
2022/10/25 10:29:58;;;;;;;25.67;7.18;;;;;;;22.16;51.98;95133.78;5092811;28;20177;-87
2022/10/25 10:32:35;;;;;;;27.90;8.38;;;;;;;22.02;52.36;95091.78;5103216;28;20672;-86
2022/10/25 10:35:05;;;;;;;15.32;6.55;;;;;;;22.55;50.70;95170.63;5094480;28;20205;-86
2022/10/25 10:37:32;;;;;;;25.15;6.95;;;;;;;22.52;49.47;95155.06;5093611;28;20345;-87
2022/10/25 10:39:57;;;;;;;18.50;6.88;;;;;;;22.51;49.72;95158.81;5092612;28;20268;-87
2022/10/25 10:42:34;;;;;;;27.92;7.72;;;;;;;22.54;48.85;95148.34;5092392;28;20318;-87
2022/10/25 10:45:02;;;;;;;33.78;6.68;;;;;;;22.53;49.92;95136.00;5101728;28;20192;-87
2022/10/25 10:47:35;;;;;;;19.73;5.75;;;;;;;22.36;50.64;95107.94;5096840;28;20264;-87
2022/10/25 10:50:20;;;;;;;23.40;5.78;;;;;;;22.59;49.62;95134.88;5093414;28;20178;-88
2022/10/25 10:52:52;;;;;;;23.75;5.93;;;;;;;22.47;49.85;95104.91;5093834;28;20191;-87
2022/10/25 10:55:44;;;;;;;18.80;7.18;;;;;;;22.76;47.82;95139.09;5091907;28;20180;-87
2022/10/25 10:58:22;;;;;;;20.17;6.30;;;;;;;22.49;47.48;95093.88;5092604;28;20217;-87
2022/10/25 11:00:49;;;;;;;19.88;5.53;;;;;;;22.73;47.76;95129.69;5093843;28;20276;-87
2022/10/25 11:03:39;;;;;;;20.48;5.82;;;;;;;22.74;47.53;95133.19;5092484;28;20239;-87
2022/10/25 11:06:06;;;;;;;18.23;6.30;;;;;;;22.77;48.44;95128.06;5111263;28;20239;-87
2022/10/25 11:08:31;;;;;;;27.52;6.05;;;;;;;22.59;47.67;95091.94;5110972;28;20162;-86
2022/10/25 11:11:18;;;;;;;16.80;6.05;;;;;;;22.81;47.22;95118.38;5112961;28;20233;-87
2022/10/25 11:13:55;;;;;;;20.55;5.63;;;;;;;22.66;46.44;95085.47;5091873;28;20188;-87
2022/10/25 11:16:53;;;;;;;24.50;5.88;;;;;;;22.84;46.07;95098.22;5092252;28;20173;-87
2022/10/25 11:19:58;;;;;;;16.52;4.95;;;;;;;23.04;45.25;95103.41;5093245;28;20693;-87
2022/10/25 11:22:42;;;;;;;14.05;4.78;;;;;;;23.10;44.59;95112.22;5091948;28;20177;-87
2022/10/25 11:25:12;;;;;;;16.33;5.07;;;;;;;23.18;43.85;95108.91;5091897;28;20276;-87
2022/10/25 11:27:37;;;;;;;17.60;3.72;;;;;;;23.23;44.26;95103.50;5091855;28;20170;-87
2022/10/25 11:30:18;;;;;;;11.85;3.60;;;;;;;23.14;42.99;95064.91;5091750;28;20200;-87
2022/10/25 11:33:20;;;;;;;15.18;4.75;;;;;;;23.25;42.52;95066.41;5093534;28;20172;-87
2022/10/25 11:36:07;;;;;;;21.75;4.53;;;;;;;23.52;40.98;95087.38;5092667;28;20169;-87